Archival Weather

Snohomish County (Paine Fld)

Everett, Washington (KPAE)

Report from: Monday, November 20, 2023 3:53 PM PST
Current time: Sunday, February 25, 2024 2:11 PM PST

Current weather – Weather history – Daily summaries
Weather forecast

Temperature8.9°C (48.0°F)
Wind chill8.3°C (47.0°F)
Dew point1.7°C (35.1°F)
Winds 3 kts (1.5 m/s, 3.5 mph) North (360°)
Visibility10 mi. (16.1 km)
Clouds Sky clear
Altimeter30.42 in.Hg (1030 mB)
Relative humidity61 %
Density altitude-1,209 ft. (-368 m)
Sea-level pressure103.1 kPa (1031 mB, 30.43 in.Hg)
Max temp last 6 hours9.4°C (48.9°F)
Min temp last 6 hours5.6°C (42.1°F)
Remarks Automated weather observing station with precipitation discriminator
Pressure falling more slowly
Flight conditions Visual Meteorological Conditions
Raw dataKPAE 202353Z 36003KT 10SM CLR 09/02 A3042 RMK AO2 SLP305 T00890017 10094 20056 56010
An error has occurred. This application may no longer respond until reloaded. Reload 🗙